sensor_id;sensor_type;location;lat;lon;timestamp;temperature;humidity
11387;DHT22;5748;53.102;8.456;2023-07-13T00:00:29;19.70;72.70
11387;DHT22;5748;53.102;8.456;2023-07-13T00:02:57;19.70;72.70
11387;DHT22;5748;53.102;8.456;2023-07-13T00:05:24;19.60;72.70
11387;DHT22;5748;53.102;8.456;2023-07-13T00:07:53;19.60;72.60
11387;DHT22;5748;53.102;8.456;2023-07-13T00:10:22;20.00;73.10
11387;DHT22;5748;53.102;8.456;2023-07-13T00:12:49;19.60;72.80
11387;DHT22;5748;53.102;8.456;2023-07-13T00:15:19;19.50;72.60
11387;DHT22;5748;53.102;8.456;2023-07-13T00:17:48;19.50;72.70
11387;DHT22;5748;53.102;8.456;2023-07-13T00:20:15;19.50;72.70
11387;DHT22;5748;53.102;8.456;2023-07-13T00:22:42;19.40;72.70
11387;DHT22;5748;53.102;8.456;2023-07-13T00:25:10;19.40;72.80
11387;DHT22;5748;53.102;8.456;2023-07-13T00:27:39;19.40;72.90
11387;DHT22;5748;53.102;8.456;2023-07-13T00:30:06;19.30;72.70
11387;DHT22;5748;53.102;8.456;2023-07-13T00:32:34;19.30;72.80
11387;DHT22;5748;53.102;8.456;2023-07-13T00:35:02;21.60;75.30
11387;DHT22;5748;53.102;8.456;2023-07-13T00:37:30;19.30;73.00
11387;DHT22;5748;53.102;8.456;2023-07-13T00:39:57;19.20;72.80
11387;DHT22;5748;53.102;8.456;2023-07-13T00:42:24;19.20;72.90
11387;DHT22;5748;53.102;8.456;2023-07-13T00:45:06;21.40;75.20
11387;DHT22;5748;53.102;8.456;2023-07-13T00:47:55;19.10;73.00
11387;DHT22;5748;53.102;8.456;2023-07-13T00:50:23;19.20;73.10
11387;DHT22;5748;53.102;8.456;2023-07-13T00:52:53;19.10;73.00
11387;DHT22;5748;53.102;8.456;2023-07-13T00:55:23;19.10;73.10
11387;DHT22;5748;53.102;8.456;2023-07-13T00:57:50;19.10;73.10
11387;DHT22;5748;53.102;8.456;2023-07-13T01:00:20;19.20;73.20
11387;DHT22;5748;53.102;8.456;2023-07-13T01:02:49;19.00;73.10
11387;DHT22;5748;53.102;8.456;2023-07-13T01:05:18;19.00;73.10
11387;DHT22;5748;53.102;8.456;2023-07-13T01:07:48;19.00;73.10
11387;DHT22;5748;53.102;8.456;2023-07-13T01:10:22;19.00;73.10
11387;DHT22;5748;53.102;8.456;2023-07-13T01:12:49;18.90;73.00
11387;DHT22;5748;53.102;8.456;2023-07-13T01:15:39;18.90;73.10
11387;DHT22;5748;53.102;8.456;2023-07-13T01:18:10;18.90;73.10
11387;DHT22;5748;53.102;8.456;2023-07-13T01:20:39;18.90;73.10
11387;DHT22;5748;53.102;8.456;2023-07-13T01:23:10;18.80;72.90
11387;DHT22;5748;53.102;8.456;2023-07-13T01:25:38;18.80;72.90
11387;DHT22;5748;53.102;8.456;2023-07-13T01:28:06;18.80;73.10
11387;DHT22;5748;53.102;8.456;2023-07-13T01:30:35;18.80;73.30
11387;DHT22;5748;53.102;8.456;2023-07-13T01:33:05;18.80;73.40
11387;DHT22;5748;53.102;8.456;2023-07-13T01:35:32;18.70;73.40
11387;DHT22;5748;53.102;8.456;2023-07-13T01:37:59;18.80;73.50
11387;DHT22;5748;53.102;8.456;2023-07-13T01:40:29;18.70;73.40
11387;DHT22;5748;53.102;8.456;2023-07-13T01:42:57;18.90;73.70
11387;DHT22;5748;53.102;8.456;2023-07-13T01:45:24;18.70;73.70
11387;DHT22;5748;53.102;8.456;2023-07-13T01:47:51;18.70;73.80
11387;DHT22;5748;53.102;8.456;2023-07-13T01:50:18;18.70;73.90
11387;DHT22;5748;53.102;8.456;2023-07-13T01:52:45;19.10;74.40
11387;DHT22;5748;53.102;8.456;2023-07-13T01:55:12;18.70;74.00
11387;DHT22;5748;53.102;8.456;2023-07-13T01:57:41;18.70;74.00
11387;DHT22;5748;53.102;8.456;2023-07-13T02:00:10;18.70;74.10
11387;DHT22;5748;53.102;8.456;2023-07-13T02:02:38;18.70;74.10
11387;DHT22;5748;53.102;8.456;2023-07-13T02:05:06;18.70;74.10
11387;DHT22;5748;53.102;8.456;2023-07-13T02:07:33;18.70;74.20
11387;DHT22;5748;53.102;8.456;2023-07-13T02:10:00;18.70;74.10
11387;DHT22;5748;53.102;8.456;2023-07-13T02:12:27;18.70;74.20
11387;DHT22;5748;53.102;8.456;2023-07-13T02:14:56;18.70;74.20
11387;DHT22;5748;53.102;8.456;2023-07-13T02:17:23;18.60;74.20
11387;DHT22;5748;53.102;8.456;2023-07-13T02:19:50;18.70;74.20
11387;DHT22;5748;53.102;8.456;2023-07-13T02:22:17;18.60;74.20
11387;DHT22;5748;53.102;8.456;2023-07-13T02:24:44;18.60;74.10
11387;DHT22;5748;53.102;8.456;2023-07-13T02:27:10;18.60;74.10
11387;DHT22;5748;53.102;8.456;2023-07-13T02:29:37;18.60;74.10
11387;DHT22;5748;53.102;8.456;2023-07-13T02:32:07;18.60;74.20
11387;DHT22;5748;53.102;8.456;2023-07-13T02:34:34;18.60;74.40
11387;DHT22;5748;53.102;8.456;2023-07-13T02:37:01;18.60;74.50
11387;DHT22;5748;53.102;8.456;2023-07-13T02:39:28;18.60;74.80
11387;DHT22;5748;53.102;8.456;2023-07-13T02:41:58;18.60;74.90
11387;DHT22;5748;53.102;8.456;2023-07-13T02:44:25;18.60;75.10
11387;DHT22;5748;53.102;8.456;2023-07-13T02:46:52;18.60;75.30
11387;DHT22;5748;53.102;8.456;2023-07-13T02:49:20;18.60;75.40
11387;DHT22;5748;53.102;8.456;2023-07-13T02:51:47;18.70;75.50
11387;DHT22;5748;53.102;8.456;2023-07-13T02:54:14;18.70;75.50
11387;DHT22;5748;53.102;8.456;2023-07-13T02:56:41;18.70;76.30
11387;DHT22;5748;53.102;8.456;2023-07-13T02:59:09;18.70;75.70
11387;DHT22;5748;53.102;8.456;2023-07-13T03:01:36;18.80;75.70
11387;DHT22;5748;53.102;8.456;2023-07-13T03:04:03;18.60;75.50
11387;DHT22;5748;53.102;8.456;2023-07-13T03:06:32;18.80;75.70
11387;DHT22;5748;53.102;8.456;2023-07-13T03:08:59;18.80;75.60
11387;DHT22;5748;53.102;8.456;2023-07-13T03:11:26;18.90;75.80
11387;DHT22;5748;53.102;8.456;2023-07-13T03:13:54;18.90;75.90
11387;DHT22;5748;53.102;8.456;2023-07-13T03:16:21;18.90;76.30
11387;DHT22;5748;53.102;8.456;2023-07-13T03:18:48;18.90;75.90
11387;DHT22;5748;53.102;8.456;2023-07-13T03:21:16;18.90;76.00
11387;DHT22;5748;53.102;8.456;2023-07-13T03:23:44;19.00;76.10
11387;DHT22;5748;53.102;8.456;2023-07-13T03:26:13;19.00;75.90
11387;DHT22;5748;53.102;8.456;2023-07-13T03:28:43;19.00;76.00
11387;DHT22;5748;53.102;8.456;2023-07-13T03:31:12;19.10;76.20
11387;DHT22;5748;53.102;8.456;2023-07-13T03:33:40;19.10;76.20
11387;DHT22;5748;53.102;8.456;2023-07-13T03:36:14;19.10;76.00
11387;DHT22;5748;53.102;8.456;2023-07-13T03:38:46;19.10;76.10
11387;DHT22;5748;53.102;8.456;2023-07-13T03:41:13;19.10;76.20
11387;DHT22;5748;53.102;8.456;2023-07-13T03:43:41;19.10;76.20
11387;DHT22;5748;53.102;8.456;2023-07-13T03:46:08;19.10;76.20
11387;DHT22;5748;53.102;8.456;2023-07-13T03:48:35;19.80;77.00
11387;DHT22;5748;53.102;8.456;2023-07-13T03:51:02;19.30;76.50
11387;DHT22;5748;53.102;8.456;2023-07-13T03:53:29;19.20;76.60
11387;DHT22;5748;53.102;8.456;2023-07-13T03:55:57;19.20;76.80
11387;DHT22;5748;53.102;8.456;2023-07-13T03:58:31;20.10;77.60
11387;DHT22;5748;53.102;8.456;2023-07-13T04:01:00;19.30;76.50
11387;DHT22;5748;53.102;8.456;2023-07-13T04:03:29;19.30;76.40
11387;DHT22;5748;53.102;8.456;2023-07-13T04:05:58;19.30;76.40
11387;DHT22;5748;53.102;8.456;2023-07-13T04:08:26;19.40;76.40
11387;DHT22;5748;53.102;8.456;2023-07-13T04:10:54;19.30;76.20
11387;DHT22;5748;53.102;8.456;2023-07-13T04:13:22;19.30;76.30
11387;DHT22;5748;53.102;8.456;2023-07-13T04:15:50;19.40;76.60
11387;DHT22;5748;53.102;8.456;2023-07-13T04:18:18;19.40;76.60
11387;DHT22;5748;53.102;8.456;2023-07-13T04:20:46;19.40;76.30
11387;DHT22;5748;53.102;8.456;2023-07-13T04:23:13;19.40;76.30
11387;DHT22;5748;53.102;8.456;2023-07-13T04:25:43;19.50;76.50
11387;DHT22;5748;53.102;8.456;2023-07-13T04:28:09;19.50;76.30
11387;DHT22;5748;53.102;8.456;2023-07-13T04:30:38;19.50;76.20
11387;DHT22;5748;53.102;8.456;2023-07-13T04:33:05;19.40;76.30
11387;DHT22;5748;53.102;8.456;2023-07-13T04:35:31;19.50;76.30
11387;DHT22;5748;53.102;8.456;2023-07-13T04:37:58;19.40;76.20
11387;DHT22;5748;53.102;8.456;2023-07-13T04:40:27;20.60;77.50
11387;DHT22;5748;53.102;8.456;2023-07-13T04:42:55;19.50;76.40
11387;DHT22;5748;53.102;8.456;2023-07-13T04:45:23;19.60;76.70
11387;DHT22;5748;53.102;8.456;2023-07-13T04:47:52;21.20;78.30
11387;DHT22;5748;53.102;8.456;2023-07-13T04:50:19;19.70;77.20
11387;DHT22;5748;53.102;8.456;2023-07-13T04:52:49;19.90;77.10
11387;DHT22;5748;53.102;8.456;2023-07-13T04:55:16;19.60;77.00
11387;DHT22;5748;53.102;8.456;2023-07-13T04:57:44;19.60;76.40
11387;DHT22;5748;53.102;8.456;2023-07-13T05:00:12;19.60;76.70
11387;DHT22;5748;53.102;8.456;2023-07-13T05:02:43;19.60;76.70
11387;DHT22;5748;53.102;8.456;2023-07-13T05:05:13;19.60;75.80
11387;DHT22;5748;53.102;8.456;2023-07-13T05:07:40;19.60;76.80
11387;DHT22;5748;53.102;8.456;2023-07-13T05:10:08;19.70;77.00
11387;DHT22;5748;53.102;8.456;2023-07-13T05:12:35;19.70;76.90
11387;DHT22;5748;53.102;8.456;2023-07-13T05:15:03;19.70;77.30
11387;DHT22;5748;53.102;8.456;2023-07-13T05:17:30;19.70;76.50
11387;DHT22;5748;53.102;8.456;2023-07-13T05:22:26;19.80;76.80
11387;DHT22;5748;53.102;8.456;2023-07-13T05:27:20;19.90;76.70
11387;DHT22;5748;53.102;8.456;2023-07-13T05:29:47;21.00;79.00
11387;DHT22;5748;53.102;8.456;2023-07-13T05:32:14;19.90;77.60
11387;DHT22;5748;53.102;8.456;2023-07-13T05:34:41;20.90;78.60
11387;DHT22;5748;53.102;8.456;2023-07-13T05:37:08;20.00;77.80
11387;DHT22;5748;53.102;8.456;2023-07-13T05:39:36;20.10;77.80
11387;DHT22;5748;53.102;8.456;2023-07-13T05:42:04;20.10;77.80
11387;DHT22;5748;53.102;8.456;2023-07-13T05:44:31;20.20;78.20
11387;DHT22;5748;53.102;8.456;2023-07-13T05:46:58;20.30;78.20
11387;DHT22;5748;53.102;8.456;2023-07-13T05:49:25;20.40;77.90
11387;DHT22;5748;53.102;8.456;2023-07-13T05:51:52;20.50;78.60
11387;DHT22;5748;53.102;8.456;2023-07-13T05:54:19;20.40;78.60
11387;DHT22;5748;53.102;8.456;2023-07-13T05:56:47;20.50;78.80
11387;DHT22;5748;53.102;8.456;2023-07-13T05:59:14;20.60;78.80
11387;DHT22;5748;53.102;8.456;2023-07-13T06:01:41;20.60;77.00
11387;DHT22;5748;53.102;8.456;2023-07-13T06:04:17;20.70;77.60
11387;DHT22;5748;53.102;8.456;2023-07-13T06:06:44;20.80;78.40
11387;DHT22;5748;53.102;8.456;2023-07-13T06:09:11;20.80;78.20
11387;DHT22;5748;53.102;8.456;2023-07-13T06:11:38;20.90;78.60
11387;DHT22;5748;53.102;8.456;2023-07-13T06:14:06;21.00;77.90
11387;DHT22;5748;53.102;8.456;2023-07-13T06:16:33;21.00;77.50
11387;DHT22;5748;53.102;8.456;2023-07-13T06:21:28;21.20;77.20
11387;DHT22;5748;53.102;8.456;2023-07-13T06:23:55;21.30;78.30
11387;DHT22;5748;53.102;8.456;2023-07-13T06:26:22;21.40;78.40
11387;DHT22;5748;53.102;8.456;2023-07-13T06:28:53;21.30;77.00
11387;DHT22;5748;53.102;8.456;2023-07-13T06:31:21;21.50;76.80
11387;DHT22;5748;53.102;8.456;2023-07-13T06:33:48;21.90;81.10
11387;DHT22;5748;53.102;8.456;2023-07-13T06:36:15;22.60;79.50
11387;DHT22;5748;53.102;8.456;2023-07-13T06:38:42;21.70;77.80
11387;DHT22;5748;53.102;8.456;2023-07-13T06:41:14;21.60;77.80
11387;DHT22;5748;53.102;8.456;2023-07-13T06:43:44;21.60;78.10
11387;DHT22;5748;53.102;8.456;2023-07-13T06:46:11;21.70;77.40
11387;DHT22;5748;53.102;8.456;2023-07-13T06:48:39;21.80;77.20
11387;DHT22;5748;53.102;8.456;2023-07-13T06:51:06;21.90;77.30
11387;DHT22;5748;53.102;8.456;2023-07-13T06:53:33;21.70;76.50
11387;DHT22;5748;53.102;8.456;2023-07-13T06:56:00;21.90;76.60
11387;DHT22;5748;53.102;8.456;2023-07-13T06:58:27;22.10;75.10
11387;DHT22;5748;53.102;8.456;2023-07-13T07:00:54;22.10;77.20
11387;DHT22;5748;53.102;8.456;2023-07-13T07:03:21;22.10;80.60
11387;DHT22;5748;53.102;8.456;2023-07-13T07:05:49;22.10;79.60
11387;DHT22;5748;53.102;8.456;2023-07-13T07:08:16;22.20;76.00
11387;DHT22;5748;53.102;8.456;2023-07-13T07:10:43;22.20;75.90
11387;DHT22;5748;53.102;8.456;2023-07-13T07:13:10;22.20;75.50
11387;DHT22;5748;53.102;8.456;2023-07-13T07:15:37;22.30;76.50
11387;DHT22;5748;53.102;8.456;2023-07-13T07:18:04;22.30;76.60
11387;DHT22;5748;53.102;8.456;2023-07-13T07:20:31;22.30;76.50
11387;DHT22;5748;53.102;8.456;2023-07-13T07:23:00;22.30;76.50
11387;DHT22;5748;53.102;8.456;2023-07-13T07:25:27;22.80;77.30
11387;DHT22;5748;53.102;8.456;2023-07-13T07:27:57;22.40;76.50
11387;DHT22;5748;53.102;8.456;2023-07-13T07:30:24;22.50;76.90
11387;DHT22;5748;53.102;8.456;2023-07-13T07:32:51;22.50;77.10
11387;DHT22;5748;53.102;8.456;2023-07-13T07:35:18;22.60;77.60
11387;DHT22;5748;53.102;8.456;2023-07-13T07:37:46;22.60;77.60
11387;DHT22;5748;53.102;8.456;2023-07-13T07:40:14;23.50;79.10
11387;DHT22;5748;53.102;8.456;2023-07-13T07:42:41;23.10;80.70
11387;DHT22;5748;53.102;8.456;2023-07-13T07:45:09;23.20;80.20
11387;DHT22;5748;53.102;8.456;2023-07-13T07:47:37;23.60;80.60
11387;DHT22;5748;53.102;8.456;2023-07-13T07:50:05;23.80;80.70
11387;DHT22;5748;53.102;8.456;2023-07-13T07:52:33;24.20;80.50
11387;DHT22;5748;53.102;8.456;2023-07-13T07:54:59;24.60;81.20
11387;DHT22;5748;53.102;8.456;2023-07-13T07:57:28;25.00;80.90
11387;DHT22;5748;53.102;8.456;2023-07-13T07:59:55;25.40;79.90
11387;DHT22;5748;53.102;8.456;2023-07-13T08:02:22;25.80;81.00
11387;DHT22;5748;53.102;8.456;2023-07-13T08:04:49;26.10;79.00
11387;DHT22;5748;53.102;8.456;2023-07-13T08:07:16;26.40;78.40
11387;DHT22;5748;53.102;8.456;2023-07-13T08:09:43;26.70;77.90
11387;DHT22;5748;53.102;8.456;2023-07-13T08:12:10;27.10;78.80
11387;DHT22;5748;53.102;8.456;2023-07-13T08:14:38;27.40;77.00
11387;DHT22;5748;53.102;8.456;2023-07-13T08:17:05;27.60;74.40
11387;DHT22;5748;53.102;8.456;2023-07-13T08:19:32;27.80;74.90
11387;DHT22;5748;53.102;8.456;2023-07-13T08:21:59;28.10;74.20
11387;DHT22;5748;53.102;8.456;2023-07-13T08:24:26;28.30;72.90
11387;DHT22;5748;53.102;8.456;2023-07-13T08:26:53;28.50;72.40
11387;DHT22;5748;53.102;8.456;2023-07-13T08:29:20;28.60;71.90
11387;DHT22;5748;53.102;8.456;2023-07-13T08:31:49;28.70;70.20
11387;DHT22;5748;53.102;8.456;2023-07-13T08:34:16;28.70;69.00
11387;DHT22;5748;53.102;8.456;2023-07-13T08:36:43;28.70;71.70
11387;DHT22;5748;53.102;8.456;2023-07-13T08:39:09;28.80;71.50
11387;DHT22;5748;53.102;8.456;2023-07-13T08:41:37;28.90;68.80
11387;DHT22;5748;53.102;8.456;2023-07-13T08:44:07;29.10;71.00
11387;DHT22;5748;53.102;8.456;2023-07-13T08:46:45;29.30;72.40
11387;DHT22;5748;53.102;8.456;2023-07-13T08:49:17;29.40;70.70
11387;DHT22;5748;53.102;8.456;2023-07-13T08:51:49;29.50;69.90
11387;DHT22;5748;53.102;8.456;2023-07-13T08:54:21;29.60;72.30
11387;DHT22;5748;53.102;8.456;2023-07-13T08:56:51;29.70;72.20
11387;DHT22;5748;53.102;8.456;2023-07-13T08:59:24;29.90;71.70
11387;DHT22;5748;53.102;8.456;2023-07-13T09:04:52;30.30;70.00
11387;DHT22;5748;53.102;8.456;2023-07-13T09:07:29;30.60;70.10
11387;DHT22;5748;53.102;8.456;2023-07-13T09:10:14;30.80;68.70
11387;DHT22;5748;53.102;8.456;2023-07-13T09:12:50;31.00;65.50
11387;DHT22;5748;53.102;8.456;2023-07-13T09:15:30;31.20;67.70
11387;DHT22;5748;53.102;8.456;2023-07-13T09:18:02;31.40;68.10
11387;DHT22;5748;53.102;8.456;2023-07-13T09:20:35;31.50;66.20
11387;DHT22;5748;53.102;8.456;2023-07-13T09:23:09;31.50;65.70
11387;DHT22;5748;53.102;8.456;2023-07-13T09:25:40;31.50;66.70
11387;DHT22;5748;53.102;8.456;2023-07-13T09:28:14;31.50;66.70
11387;DHT22;5748;53.102;8.456;2023-07-13T09:30:48;31.40;65.90
11387;DHT22;5748;53.102;8.456;2023-07-13T09:33:18;31.40;66.70
11387;DHT22;5748;53.102;8.456;2023-07-13T09:35:47;31.50;67.10
11387;DHT22;5748;53.102;8.456;2023-07-13T09:38:17;31.60;64.80
11387;DHT22;5748;53.102;8.456;2023-07-13T09:41:04;31.50;65.00
11387;DHT22;5748;53.102;8.456;2023-07-13T09:43:38;31.50;62.50
11387;DHT22;5748;53.102;8.456;2023-07-13T09:46:07;31.60;64.80
11387;DHT22;5748;53.102;8.456;2023-07-13T09:48:47;31.80;66.30
11387;DHT22;5748;53.102;8.456;2023-07-13T09:51:16;32.00;68.00
11387;DHT22;5748;53.102;8.456;2023-07-13T09:53:43;32.10;64.40
11387;DHT22;5748;53.102;8.456;2023-07-13T09:56:20;32.50;64.50
11387;DHT22;5748;53.102;8.456;2023-07-13T09:58:47;32.40;60.60
11387;DHT22;5748;53.102;8.456;2023-07-13T10:01:15;32.60;67.50
11387;DHT22;5748;53.102;8.456;2023-07-13T10:03:52;33.10;69.20
11387;DHT22;5748;53.102;8.456;2023-07-13T10:06:22;33.60;62.30
11387;DHT22;5748;53.102;8.456;2023-07-13T10:08:50;33.90;62.80
11387;DHT22;5748;53.102;8.456;2023-07-13T10:11:19;34.10;60.80
11387;DHT22;5748;53.102;8.456;2023-07-13T10:13:52;34.10;59.50
11387;DHT22;5748;53.102;8.456;2023-07-13T10:16:21;34.00;57.40
11387;DHT22;5748;53.102;8.456;2023-07-13T10:18:51;33.80;58.60
11387;DHT22;5748;53.102;8.456;2023-07-13T10:21:27;33.40;54.50
11387;DHT22;5748;53.102;8.456;2023-07-13T10:24:03;32.90;52.10
11387;DHT22;5748;53.102;8.456;2023-07-13T10:26:33;32.30;52.40
11387;DHT22;5748;53.102;8.456;2023-07-13T10:29:05;31.70;53.90
11387;DHT22;5748;53.102;8.456;2023-07-13T10:31:40;31.00;54.30
11387;DHT22;5748;53.102;8.456;2023-07-13T10:34:10;30.30;54.80
11387;DHT22;5748;53.102;8.456;2023-07-13T10:36:43;29.80;56.50
11387;DHT22;5748;53.102;8.456;2023-07-13T10:39:17;29.30;56.20
11387;DHT22;5748;53.102;8.456;2023-07-13T10:41:49;28.80;56.60
11387;DHT22;5748;53.102;8.456;2023-07-13T10:44:23;28.40;57.80
11387;DHT22;5748;53.102;8.456;2023-07-13T10:49:23;27.70;58.40
11387;DHT22;5748;53.102;8.456;2023-07-13T10:51:52;27.50;59.30
11387;DHT22;5748;53.102;8.456;2023-07-13T10:54:20;27.20;59.60
11387;DHT22;5748;53.102;8.456;2023-07-13T10:56:53;27.00;60.40
11387;DHT22;5748;53.102;8.456;2023-07-13T10:59:35;26.80;61.00
11387;DHT22;5748;53.102;8.456;2023-07-13T11:02:11;26.70;61.60
11387;DHT22;5748;53.102;8.456;2023-07-13T11:04:44;26.60;62.20
11387;DHT22;5748;53.102;8.456;2023-07-13T11:07:21;26.50;63.90
11387;DHT22;5748;53.102;8.456;2023-07-13T11:09:52;25.60;63.40
11387;DHT22;5748;53.102;8.456;2023-07-13T11:15:42;26.40;62.00
11387;DHT22;5748;53.102;8.456;2023-07-13T11:18:21;26.30;57.20
11387;DHT22;5748;53.102;8.456;2023-07-13T11:20:50;26.10;56.80
11387;DHT22;5748;53.102;8.456;2023-07-13T11:23:28;25.80;59.40
11387;DHT22;5748;53.102;8.456;2023-07-13T11:25:58;25.60;59.00
11387;DHT22;5748;53.102;8.456;2023-07-13T11:28:27;25.30;58.60
11387;DHT22;5748;53.102;8.456;2023-07-13T11:31:16;25.00;59.50
11387;DHT22;5748;53.102;8.456;2023-07-13T11:33:57;22.40;56.90
11387;DHT22;5748;53.102;8.456;2023-07-13T11:36:30;24.50;57.80
11387;DHT22;5748;53.102;8.456;2023-07-13T11:39:02;24.30;59.80
11387;DHT22;5748;53.102;8.456;2023-07-13T11:41:35;24.10;60.30
11387;DHT22;5748;53.102;8.456;2023-07-13T11:44:12;23.90;61.40
11387;DHT22;5748;53.102;8.456;2023-07-13T11:46:44;23.70;61.50
11387;DHT22;5748;53.102;8.456;2023-07-13T11:49:16;23.50;62.20
11387;DHT22;5748;53.102;8.456;2023-07-13T11:51:44;23.30;61.70
11387;DHT22;5748;53.102;8.456;2023-07-13T11:54:23;23.10;61.80
11387;DHT22;5748;53.102;8.456;2023-07-13T11:56:53;22.90;62.50
11387;DHT22;5748;53.102;8.456;2023-07-13T11:59:22;22.80;62.70
11387;DHT22;5748;53.102;8.456;2023-07-13T12:01:52;22.30;62.80
11387;DHT22;5748;53.102;8.456;2023-07-13T12:04:23;22.30;63.50
11387;DHT22;5748;53.102;8.456;2023-07-13T12:06:56;22.10;64.20
11387;DHT22;5748;53.102;8.456;2023-07-13T12:09:28;22.00;64.80
11387;DHT22;5748;53.102;8.456;2023-07-13T12:11:57;21.90;65.00
11387;DHT22;5748;53.102;8.456;2023-07-13T12:19:23;21.90;66.10
11387;DHT22;5748;53.102;8.456;2023-07-13T12:21:54;21.90;66.60
11387;DHT22;5748;53.102;8.456;2023-07-13T12:24:23;23.40;69.60
11387;DHT22;5748;53.102;8.456;2023-07-13T12:26:59;22.20;70.60
11387;DHT22;5748;53.102;8.456;2023-07-13T12:29:28;22.30;72.10
11387;DHT22;5748;53.102;8.456;2023-07-13T12:31:55;22.60;72.50
11387;DHT22;5748;53.102;8.456;2023-07-13T12:34:23;22.90;72.70
11387;DHT22;5748;53.102;8.456;2023-07-13T12:36:53;23.20;73.30
11387;DHT22;5748;53.102;8.456;2023-07-13T12:39:23;23.50;74.40
11387;DHT22;5748;53.102;8.456;2023-07-13T12:41:54;23.70;73.60
11387;DHT22;5748;53.102;8.456;2023-07-13T12:44:41;24.00;73.60
11387;DHT22;5748;53.102;8.456;2023-07-13T12:47:15;24.20;72.00
11387;DHT22;5748;53.102;8.456;2023-07-13T12:49:48;24.40;71.00
11387;DHT22;5748;53.102;8.456;2023-07-13T12:52:21;24.60;70.60
11387;DHT22;5748;53.102;8.456;2023-07-13T12:54:54;24.80;70.80
11387;DHT22;5748;53.102;8.456;2023-07-13T12:57:24;24.70;70.30
11387;DHT22;5748;53.102;8.456;2023-07-13T12:59:52;25.80;71.10
11387;DHT22;5748;53.102;8.456;2023-07-13T13:02:27;24.80;69.60
11387;DHT22;5748;53.102;8.456;2023-07-13T13:04:56;25.20;69.10
11387;DHT22;5748;53.102;8.456;2023-07-13T13:07:24;25.00;69.40
11387;DHT22;5748;53.102;8.456;2023-07-13T13:09:51;24.90;68.90
11387;DHT22;5748;53.102;8.456;2023-07-13T13:12:20;24.90;69.30
11387;DHT22;5748;53.102;8.456;2023-07-13T13:17:19;25.10;69.40
11387;DHT22;5748;53.102;8.456;2023-07-13T13:19:53;25.30;69.70
11387;DHT22;5748;53.102;8.456;2023-07-13T13:22:21;25.20;68.90
11387;DHT22;5748;53.102;8.456;2023-07-13T13:24:48;25.30;70.30
11387;DHT22;5748;53.102;8.456;2023-07-13T13:27:16;26.00;70.90
11387;DHT22;5748;53.102;8.456;2023-07-13T13:29:45;25.50;70.80
11387;DHT22;5748;53.102;8.456;2023-07-13T13:32:17;25.50;69.60
11387;DHT22;5748;53.102;8.456;2023-07-13T13:34:45;25.60;68.50
11387;DHT22;5748;53.102;8.456;2023-07-13T13:37:20;26.20;69.30
11387;DHT22;5748;53.102;8.456;2023-07-13T13:39:50;26.00;68.90
11387;DHT22;5748;53.102;8.456;2023-07-13T13:42:19;25.80;69.40
11387;DHT22;5748;53.102;8.456;2023-07-13T13:44:48;25.80;69.60
11387;DHT22;5748;53.102;8.456;2023-07-13T13:47:25;25.80;68.60
11387;DHT22;5748;53.102;8.456;2023-07-13T13:49:56;25.90;66.90
11387;DHT22;5748;53.102;8.456;2023-07-13T13:52:23;25.90;68.30
11387;DHT22;5748;53.102;8.456;2023-07-13T13:54:51;25.80;68.30
11387;DHT22;5748;53.102;8.456;2023-07-13T13:57:22;25.80;68.70
11387;DHT22;5748;53.102;8.456;2023-07-13T13:59:51;25.90;68.70
11387;DHT22;5748;53.102;8.456;2023-07-13T14:02:25;25.90;69.20
11387;DHT22;5748;53.102;8.456;2023-07-13T14:04:55;25.90;68.20
11387;DHT22;5748;53.102;8.456;2023-07-13T14:07:23;26.00;68.10
11387;DHT22;5748;53.102;8.456;2023-07-13T14:09:51;26.00;67.60
11387;DHT22;5748;53.102;8.456;2023-07-13T14:12:19;26.00;66.50
11387;DHT22;5748;53.102;8.456;2023-07-13T14:14:46;25.90;67.00
11387;DHT22;5748;53.102;8.456;2023-07-13T14:17:20;25.90;67.70
11387;DHT22;5748;53.102;8.456;2023-07-13T14:19:49;25.80;66.20
11387;DHT22;5748;53.102;8.456;2023-07-13T14:22:22;25.80;67.30
11387;DHT22;5748;53.102;8.456;2023-07-13T14:24:50;25.80;66.80
11387;DHT22;5748;53.102;8.456;2023-07-13T14:27:18;25.70;66.40
11387;DHT22;5748;53.102;8.456;2023-07-13T14:29:45;25.60;66.60
11387;DHT22;5748;53.102;8.456;2023-07-13T14:32:13;25.50;66.80
11387;DHT22;5748;53.102;8.456;2023-07-13T14:34:41;25.60;66.80
11387;DHT22;5748;53.102;8.456;2023-07-13T14:37:13;25.50;66.30
11387;DHT22;5748;53.102;8.456;2023-07-13T14:39:43;25.50;65.70
11387;DHT22;5748;53.102;8.456;2023-07-13T14:42:11;25.40;66.10
11387;DHT22;5748;53.102;8.456;2023-07-13T14:44:38;25.30;66.30
11387;DHT22;5748;53.102;8.456;2023-07-13T14:47:07;25.30;66.60
11387;DHT22;5748;53.102;8.456;2023-07-13T14:49:36;25.10;66.10
11387;DHT22;5748;53.102;8.456;2023-07-13T14:52:11;25.00;66.00
11387;DHT22;5748;53.102;8.456;2023-07-13T14:54:39;24.90;65.40
11387;DHT22;5748;53.102;8.456;2023-07-13T14:57:10;24.70;66.30
11387;DHT22;5748;53.102;8.456;2023-07-13T14:59:37;24.60;66.70
11387;DHT22;5748;53.102;8.456;2023-07-13T15:02:15;24.70;67.20
11387;DHT22;5748;53.102;8.456;2023-07-13T15:04:43;24.00;67.30
11387;DHT22;5748;53.102;8.456;2023-07-13T15:07:11;23.90;67.50
11387;DHT22;5748;53.102;8.456;2023-07-13T15:09:41;23.70;67.60
11387;DHT22;5748;53.102;8.456;2023-07-13T15:12:08;23.40;67.10
11387;DHT22;5748;53.102;8.456;2023-07-13T15:14:36;23.30;67.60
11387;DHT22;5748;53.102;8.456;2023-07-13T15:17:03;23.10;68.10
11387;DHT22;5748;53.102;8.456;2023-07-13T15:19:31;22.90;68.00
11387;DHT22;5748;53.102;8.456;2023-07-13T15:21:58;22.80;69.10
11387;DHT22;5748;53.102;8.456;2023-07-13T15:24:28;22.60;69.30
11387;DHT22;5748;53.102;8.456;2023-07-13T15:26:55;22.60;70.00
11387;DHT22;5748;53.102;8.456;2023-07-13T15:29:22;22.30;70.00
11387;DHT22;5748;53.102;8.456;2023-07-13T15:31:49;22.20;70.20
11387;DHT22;5748;53.102;8.456;2023-07-13T15:34:24;22.10;70.60
11387;DHT22;5748;53.102;8.456;2023-07-13T15:36:52;22.00;71.10
11387;DHT22;5748;53.102;8.456;2023-07-13T15:39:19;21.90;71.20
11387;DHT22;5748;53.102;8.456;2023-07-13T15:41:48;21.80;71.00
11387;DHT22;5748;53.102;8.456;2023-07-13T15:44:25;22.60;72.90
11387;DHT22;5748;53.102;8.456;2023-07-13T15:46:53;21.60;72.40
11387;DHT22;5748;53.102;8.456;2023-07-13T15:49:21;21.60;72.30
11387;DHT22;5748;53.102;8.456;2023-07-13T15:51:48;21.50;72.20
11387;DHT22;5748;53.102;8.456;2023-07-13T15:54:17;21.50;72.60
11387;DHT22;5748;53.102;8.456;2023-07-13T15:56:50;21.40;72.70
11387;DHT22;5748;53.102;8.456;2023-07-13T15:59:19;21.40;73.00
11387;DHT22;5748;53.102;8.456;2023-07-13T16:01:45;21.30;72.90
11387;DHT22;5748;53.102;8.456;2023-07-13T16:04:15;21.30;72.70
11387;DHT22;5748;53.102;8.456;2023-07-13T16:09:17;21.00;72.90
11387;DHT22;5748;53.102;8.456;2023-07-13T16:11:45;21.20;74.10
11387;DHT22;5748;53.102;8.456;2023-07-13T16:14:14;21.50;74.80
11387;DHT22;5748;53.102;8.456;2023-07-13T16:16:42;21.10;74.80
11387;DHT22;5748;53.102;8.456;2023-07-13T16:19:11;21.00;75.00
11387;DHT22;5748;53.102;8.456;2023-07-13T16:21:43;21.00;75.40
11387;DHT22;5748;53.102;8.456;2023-07-13T16:24:17;20.90;76.10